createdAt,value
2022-09-12T00:02:02.198Z,2.28
2022-09-12T00:07:02.168Z,3.00
2022-09-12T00:09:32.934Z,3.67
2022-09-12T00:12:03.146Z,3.20
2022-09-12T00:14:33.595Z,3.28
2022-09-12T00:17:06.575Z,4.57
2022-09-12T00:19:36.935Z,3.33
2022-09-12T00:22:07.572Z,4.28
2022-09-12T00:24:37.952Z,4.20
2022-09-12T00:27:08.714Z,4.85
2022-09-12T00:29:39.118Z,5.18
2022-09-12T00:32:12.125Z,5.55
2022-09-12T00:34:42.172Z,5.80
2022-09-12T00:37:12.372Z,5.72
2022-09-12T00:39:42.612Z,6.45
2022-09-12T00:42:13.670Z,7.53
2022-09-12T00:44:50.808Z,7.40
2022-09-12T00:47:30.452Z,6.90
2022-09-12T00:50:07.345Z,5.85
2022-09-12T00:52:42.385Z,6.07
2022-09-12T00:55:15.906Z,5.82
2022-09-12T00:57:58.976Z,6.55
2022-09-12T01:00:31.460Z,7.00
2022-09-12T01:03:08.107Z,6.40
2022-09-12T01:05:45.071Z,6.60
2022-09-12T01:08:15.600Z,6.55
2022-09-12T01:10:46.341Z,6.57
2022-09-12T01:13:16.503Z,7.50
2022-09-12T01:15:46.952Z,6.70
2022-09-12T01:18:28.171Z,6.70
2022-09-12T01:21:08.002Z,6.40
2022-09-12T01:24:16.933Z,6.13
2022-09-12T01:27:21.747Z,7.03
2022-09-12T01:30:26.926Z,6.63
2022-09-12T01:33:13.439Z,7.20
2022-09-12T01:35:54.595Z,7.18
2022-09-12T01:38:30.666Z,8.40
2022-09-12T01:41:11.825Z,7.38
2022-09-12T01:43:51.309Z,8.05
2022-09-12T01:46:24.665Z,7.93
2022-09-12T01:49:01.146Z,8.70
2022-09-12T01:51:37.923Z,7.28
2022-09-12T01:54:12.650Z,8.65
2022-09-12T01:56:45.241Z,9.63
2022-09-12T01:59:20.904Z,9.80
2022-09-12T02:01:56.596Z,9.68
2022-09-12T02:04:34.363Z,10.40
2022-09-12T02:07:11.419Z,10.07
2022-09-12T02:09:48.557Z,9.23
2022-09-12T02:12:22.215Z,10.68
2022-09-12T02:17:27.643Z,9.70
2022-09-12T02:20:06.355Z,11.85
2022-09-12T02:22:40.389Z,10.73
2022-09-12T02:25:14.772Z,12.50
2022-09-12T02:27:49.955Z,11.57
2022-09-12T02:30:23.422Z,11.55
2022-09-12T02:33:03.807Z,11.82
2022-09-12T02:35:47.240Z,10.27
2022-09-12T02:38:28.148Z,12.48
2022-09-12T02:40:58.715Z,11.65
2022-09-12T02:43:28.894Z,11.18
2022-09-12T02:45:59.189Z,12.60
2022-09-12T02:48:33.435Z,12.88
2022-09-12T02:51:06.986Z,13.77
2022-09-12T02:56:11.325Z,12.90
2022-09-12T02:58:42.038Z,15.35
2022-09-12T03:01:21.255Z,14.50
2022-09-12T03:04:08.424Z,16.48
2022-09-12T03:06:49.237Z,15.90
2022-09-12T03:09:24.219Z,16.02
2022-09-12T03:12:14.860Z,15.50
2022-09-12T03:15:03.094Z,15.32
2022-09-12T03:17:40.938Z,14.88
2022-09-12T03:20:15.289Z,15.35
2022-09-12T03:22:56.758Z,15.15
2022-09-12T03:25:33.949Z,16.48
2022-09-12T03:28:09.523Z,16.08
2022-09-12T03:30:43.094Z,14.23
2022-09-12T03:35:45.102Z,15.55
2022-09-12T03:38:18.353Z,16.25
2022-09-12T03:40:54.113Z,16.38
2022-09-12T03:43:24.815Z,16.45
2022-09-12T03:45:55.248Z,17.52
2022-09-12T03:48:25.356Z,16.92
2022-09-12T03:50:55.416Z,16.00
2022-09-12T03:53:28.170Z,17.60
2022-09-12T03:55:58.564Z,17.83
2022-09-12T03:58:32.594Z,18.10
2022-09-12T04:01:03.082Z,17.63
2022-09-12T04:03:33.232Z,18.83
2022-09-12T04:06:03.362Z,19.00
2022-09-12T04:08:36.024Z,19.92
2022-09-12T04:11:07.123Z,19.17
2022-09-12T04:13:38.496Z,19.15
2022-09-12T04:16:09.867Z,19.95
2022-09-12T04:18:40.482Z,19.60
2022-09-12T04:21:12.292Z,20.33
2022-09-12T04:23:45.041Z,21.38
2022-09-12T04:26:17.595Z,19.63
2022-09-12T04:28:48.908Z,21.27
2022-09-12T04:31:22.833Z,20.13
2022-09-12T04:33:58.803Z,21.17
2022-09-12T04:36:30.211Z,20.77
2022-09-12T04:39:04.470Z,20.85
2022-09-12T04:41:37.191Z,22.88
2022-09-12T04:44:09.684Z,22.87
2022-09-12T04:46:43.254Z,20.80
2022-09-12T04:49:14.332Z,20.88
2022-09-12T04:51:45.678Z,21.08
2022-09-12T04:54:20.759Z,21.05
2022-09-12T04:56:52.909Z,20.90
2022-09-12T04:59:24.489Z,19.52
2022-09-12T05:01:54.621Z,18.88
2022-09-12T05:04:24.679Z,19.13
2022-09-12T05:06:54.956Z,20.48
2022-09-12T05:09:27.692Z,19.88
2022-09-12T05:12:05.614Z,19.93
2022-09-12T05:14:36.556Z,20.60
2022-09-12T05:17:07.929Z,21.52
2022-09-12T05:19:38.063Z,19.88
2022-09-12T05:22:08.188Z,21.75
2022-09-12T05:24:47.307Z,24.10
2022-09-12T05:27:20.248Z,26.83
2022-09-12T05:29:50.272Z,23.17
2022-09-12T05:32:20.880Z,24.88
2022-09-12T05:34:51.059Z,24.92
2022-09-12T05:37:21.079Z,24.42
2022-09-12T05:39:53.837Z,23.50
2022-09-12T05:42:24.151Z,23.60
2022-09-12T05:44:54.373Z,23.08
2022-09-12T05:47:24.601Z,22.75
2022-09-12T05:49:54.988Z,22.35
2022-09-12T05:52:25.072Z,22.63
2022-09-12T05:54:57.853Z,22.55
2022-09-12T05:57:27.895Z,20.63
2022-09-12T05:59:58.392Z,20.88
2022-09-12T06:02:29.031Z,20.25
2022-09-12T06:04:59.099Z,20.38
2022-09-12T06:07:29.832Z,20.15
2022-09-12T06:10:02.600Z,20.45
2022-09-12T06:12:32.952Z,20.83
2022-09-12T06:15:03.048Z,19.42
2022-09-12T06:17:33.104Z,18.77
2022-09-12T06:20:04.225Z,17.83
2022-09-12T06:22:34.549Z,18.27
2022-09-12T06:25:08.807Z,18.38
2022-09-12T06:27:39.157Z,18.15
2022-09-12T06:30:10.994Z,17.85
2022-09-12T06:32:41.275Z,17.30
2022-09-12T06:35:12.590Z,20.30
2022-09-12T06:37:42.973Z,19.50
2022-09-12T06:40:17.574Z,19.77
2022-09-12T06:42:48.804Z,18.85
2022-09-12T06:45:35.297Z,17.35
2022-09-12T06:48:06.074Z,16.35
2022-09-12T06:50:36.363Z,16.02
2022-09-12T06:53:06.663Z,13.27
2022-09-12T06:55:39.686Z,13.30
2022-09-12T06:58:10.044Z,12.75
2022-09-12T07:00:40.613Z,12.48
2022-09-12T07:03:11.426Z,12.00
2022-09-12T07:05:41.736Z,11.05
2022-09-12T07:08:12.357Z,12.65
2022-09-12T07:10:45.712Z,12.20
2022-09-12T07:13:15.856Z,12.57
2022-09-12T07:15:46.364Z,11.05
2022-09-12T07:18:16.470Z,10.65
2022-09-12T07:20:46.631Z,10.15
2022-09-12T07:23:16.940Z,10.88
2022-09-12T07:25:57.296Z,10.32
2022-09-12T07:28:27.869Z,8.63
2022-09-12T07:31:00.033Z,10.32
2022-09-12T07:33:31.396Z,10.18
2022-09-12T07:36:06.034Z,9.23
2022-09-12T07:38:36.865Z,9.50
2022-09-12T07:41:17.143Z,9.02
2022-09-12T07:43:47.686Z,8.57
2022-09-12T07:46:18.609Z,7.78
2022-09-12T07:48:52.990Z,7.50
2022-09-12T07:51:24.424Z,7.60
2022-09-12T07:53:55.032Z,6.95
2022-09-12T07:56:32.687Z,7.55
2022-09-12T07:59:04.895Z,7.05
2022-09-12T08:01:35.338Z,6.50
2022-09-12T08:04:06.092Z,6.93
2022-09-12T08:06:37.464Z,5.88
2022-09-12T08:09:08.704Z,6.22
2022-09-12T08:11:41.710Z,6.75
2022-09-12T08:14:11.945Z,5.72
2022-09-12T08:16:42.325Z,5.60
2022-09-12T08:19:12.388Z,5.15
2022-09-12T08:21:42.509Z,5.32
2022-09-12T08:24:16.040Z,4.85
2022-09-12T08:29:18.956Z,4.55
2022-09-12T08:31:51.097Z,3.67
2022-09-12T08:34:24.984Z,4.43
2022-09-12T08:36:56.226Z,4.05
2022-09-12T08:39:26.974Z,4.45
2022-09-12T08:42:05.003Z,4.95
2022-09-12T08:44:59.234Z,3.88
2022-09-12T08:47:33.697Z,4.07
2022-09-12T08:50:09.714Z,3.85
2022-09-12T08:52:46.454Z,3.55
2022-09-12T08:55:28.901Z,4.45
2022-09-12T08:58:02.733Z,3.28
2022-09-12T09:00:43.215Z,2.95
2022-09-12T09:03:47.046Z,3.40
2022-09-12T09:06:32.633Z,3.22
2022-09-12T09:09:12.157Z,3.13
2022-09-12T09:11:56.074Z,2.92
2022-09-12T09:14:49.126Z,3.53
2022-09-12T09:17:25.524Z,3.03
2022-09-12T09:20:05.296Z,2.70
2022-09-12T09:22:41.954Z,2.20
2022-09-12T09:25:23.013Z,2.95
2022-09-12T09:28:01.133Z,2.38
2022-09-12T09:30:35.983Z,2.42
2022-09-12T09:33:08.157Z,2.42
2022-09-12T09:35:46.580Z,2.88
2022-09-12T09:38:26.433Z,2.53
2022-09-12T09:41:10.311Z,2.00
2022-09-12T09:43:41.887Z,2.47
2022-09-12T09:46:15.193Z,2.38
2022-09-12T09:51:21.553Z,2.25
2022-09-12T09:53:55.777Z,2.78
2022-09-12T09:56:32.973Z,2.45
2022-09-12T09:59:13.343Z,2.25
2022-09-12T10:01:58.281Z,2.55
2022-09-12T10:04:30.896Z,2.22
2022-09-12T10:07:03.233Z,1.85
2022-09-12T10:09:36.291Z,1.98
2022-09-12T10:12:23.793Z,2.00
2022-09-12T10:15:01.463Z,2.17
2022-09-12T10:17:42.700Z,1.90
2022-09-12T10:20:32.692Z,1.92
2022-09-12T10:23:05.230Z,2.30
2022-09-12T10:25:36.403Z,1.90
2022-09-12T10:28:06.632Z,2.10
2022-09-12T10:30:37.306Z,2.05
2022-09-12T10:33:15.357Z,2.15
2022-09-12T10:35:48.835Z,2.33
2022-09-12T10:38:24.974Z,2.22
2022-09-12T10:41:02.227Z,2.30
2022-09-12T10:43:40.707Z,1.75
2022-09-12T10:46:27.125Z,2.45
2022-09-12T10:49:25.294Z,2.45
2022-09-12T10:51:56.886Z,2.33
2022-09-12T10:54:30.187Z,2.33
2022-09-12T11:00:17.257Z,1.85
2022-09-12T11:02:55.540Z,2.25
2022-09-12T11:05:44.841Z,2.03
2022-09-12T11:08:38.947Z,1.83
2022-09-12T11:11:19.280Z,2.20
2022-09-12T11:14:04.412Z,2.13
2022-09-12T11:16:43.332Z,2.17
2022-09-12T11:19:29.820Z,2.40
2022-09-12T11:22:32.240Z,2.60
2022-09-12T11:25:15.423Z,2.20
2022-09-12T11:27:58.273Z,2.40
2022-09-12T11:30:28.863Z,2.10
2022-09-12T11:33:16.647Z,2.47
2022-09-12T11:35:55.278Z,3.00
2022-09-12T11:38:46.297Z,2.35
2022-09-12T11:41:22.273Z,2.47
2022-09-12T11:43:57.705Z,2.05
2022-09-12T11:46:34.701Z,2.30
2022-09-12T11:49:12.103Z,2.22
2022-09-12T11:51:48.076Z,2.83
2022-09-12T11:54:28.133Z,2.92
2022-09-12T11:57:08.567Z,2.92
2022-09-12T11:59:47.414Z,2.40
2022-09-12T12:02:25.242Z,3.03
2022-09-12T12:05:22.109Z,2.63
2022-09-12T12:07:56.973Z,2.85
2022-09-12T12:10:37.031Z,2.70
2022-09-12T12:13:14.098Z,2.75
2022-09-12T12:15:50.765Z,3.20
2022-09-12T12:18:23.307Z,2.50
2022-09-12T12:20:54.155Z,2.13
2022-09-12T12:23:30.227Z,2.83
2022-09-12T12:26:05.428Z,2.40
2022-09-12T12:29:01.149Z,2.97
2022-09-12T12:31:31.307Z,2.50
2022-09-12T12:34:25.153Z,3.10
2022-09-12T12:36:55.333Z,2.55
2022-09-12T12:40:01.438Z,2.97
2022-09-12T12:43:06.307Z,3.92
2022-09-12T12:46:09.193Z,2.90
2022-09-12T12:49:13.465Z,2.90
2022-09-12T12:54:55.916Z,13.52
2022-09-12T12:57:42.723Z,8.68
2022-09-12T13:00:33.455Z,3.72
2022-09-12T13:03:12.396Z,2.67
2022-09-12T13:05:44.722Z,7.78
2022-09-12T13:08:32.067Z,4.25
2022-09-12T13:11:05.702Z,3.20
2022-09-12T13:13:41.213Z,2.90
2022-09-12T13:16:31.812Z,2.92
2022-09-12T13:19:06.841Z,2.58
2022-09-12T13:21:38.458Z,2.75
2022-09-12T13:24:17.294Z,2.28
2022-09-12T13:26:50.543Z,2.28
2022-09-12T13:29:22.312Z,2.30
2022-09-12T13:31:59.249Z,2.58
2022-09-12T13:34:33.629Z,2.55
2022-09-12T13:37:30.599Z,2.78
2022-09-12T13:40:13.871Z,3.45
2022-09-12T13:42:45.491Z,3.28
2022-09-12T13:45:23.294Z,2.78
2022-09-12T13:47:59.847Z,3.63
2022-09-12T13:50:33.807Z,3.33
2022-09-12T13:53:07.517Z,3.20
2022-09-12T13:55:40.017Z,3.03
2022-09-12T13:58:20.421Z,3.05
2022-09-12T14:01:02.962Z,2.83
2022-09-12T14:03:50.394Z,2.42
2022-09-12T14:06:21.213Z,2.22
2022-09-12T14:08:51.722Z,2.20
2022-09-12T14:11:28.693Z,2.88
2022-09-12T14:13:58.873Z,2.67
2022-09-12T14:16:30.129Z,2.50
2022-09-12T14:19:03.003Z,2.80
2022-09-12T14:21:39.328Z,2.78
2022-09-12T14:24:13.332Z,2.80
2022-09-12T14:26:45.631Z,2.67
2022-09-12T14:29:19.111Z,2.28
2022-09-12T14:31:49.751Z,1.98
2022-09-12T14:34:22.915Z,2.92
2022-09-12T14:36:56.376Z,3.13
2022-09-12T14:42:09.568Z,2.50
2022-09-12T14:44:40.425Z,3.30
2022-09-12T14:47:22.640Z,3.22
2022-09-12T14:49:55.654Z,2.85
2022-09-12T14:52:29.780Z,2.55
2022-09-12T14:55:01.991Z,3.15
2022-09-12T14:57:39.017Z,3.25
2022-09-12T15:00:22.780Z,3.45
2022-09-12T15:02:53.880Z,3.15
2022-09-12T15:05:31.209Z,3.30
2022-09-12T15:08:06.317Z,2.85
2022-09-12T15:10:40.574Z,3.45
2022-09-12T15:13:26.029Z,2.92
2022-09-12T15:15:58.166Z,2.55
2022-09-12T15:18:30.235Z,2.95
2022-09-12T15:21:07.877Z,3.28
2022-09-12T15:23:40.691Z,3.25
2022-09-12T15:26:13.398Z,3.08
2022-09-12T15:28:43.920Z,3.03
2022-09-12T15:31:18.894Z,2.85
2022-09-12T15:33:49.117Z,2.58
2022-09-12T15:36:24.412Z,2.83
2022-09-12T15:38:55.748Z,3.13
2022-09-12T15:41:30.329Z,2.75
2022-09-12T15:44:01.804Z,2.70
2022-09-12T15:46:33.595Z,2.55
2022-09-12T15:49:04.150Z,2.95
2022-09-12T15:51:37.454Z,3.38
2022-09-12T15:54:08.079Z,2.63
2022-09-12T15:56:38.438Z,3.10
2022-09-12T15:59:08.709Z,2.50
2022-09-12T16:01:38.917Z,2.10
2022-09-12T16:04:24.135Z,3.05
2022-09-12T16:06:58.013Z,2.75
2022-09-12T16:09:28.279Z,2.42
2022-09-12T16:11:58.603Z,2.85
2022-09-12T16:14:29.124Z,2.67
2022-09-12T16:16:59.499Z,3.00
2022-09-12T16:19:29.712Z,2.55
2022-09-12T16:22:03.031Z,2.80
2022-09-12T16:24:33.565Z,2.67
2022-09-12T16:27:04.170Z,2.95
2022-09-12T16:29:34.655Z,2.95
2022-09-12T16:32:05.547Z,3.20
2022-09-12T16:34:35.665Z,2.47
2022-09-12T16:37:08.779Z,2.63
2022-09-12T16:39:39.424Z,3.22
2022-09-12T16:42:10.635Z,2.83
2022-09-12T16:44:41.160Z,2.55
2022-09-12T16:47:11.483Z,3.00
2022-09-12T16:49:41.678Z,3.28
2022-09-12T16:52:17.047Z,2.58
2022-09-12T16:54:47.874Z,3.13
2022-09-12T16:57:21.167Z,3.08
2022-09-12T16:59:51.731Z,2.65
2022-09-12T17:02:22.369Z,3.25
2022-09-12T17:04:53.161Z,2.97
2022-09-12T17:07:29.662Z,2.78
2022-09-12T17:10:00.485Z,2.45
2022-09-12T17:12:33.292Z,3.47
2022-09-12T17:15:04.106Z,3.30
2022-09-12T17:17:34.412Z,3.45
2022-09-12T17:20:05.219Z,2.95
2022-09-12T17:22:38.398Z,3.40
2022-09-12T17:25:09.941Z,3.40
2022-09-12T17:27:40.415Z,3.08
2022-09-12T17:30:12.568Z,3.35
2022-09-12T17:32:44.219Z,2.97
2022-09-12T17:35:14.293Z,3.45
2022-09-12T17:37:47.230Z,3.20
2022-09-12T17:40:17.922Z,3.10
2022-09-12T17:42:48.556Z,2.95
2022-09-12T17:45:19.798Z,2.85
2022-09-12T17:47:50.083Z,3.30
2022-09-12T17:50:31.581Z,2.90
2022-09-12T17:53:05.435Z,3.05
2022-09-12T17:55:38.175Z,2.95
2022-09-12T17:58:08.890Z,3.20
2022-09-12T18:00:52.956Z,2.65
2022-09-12T18:03:26.120Z,4.00
2022-09-12T18:05:58.513Z,3.20
2022-09-12T18:08:31.778Z,2.95
2022-09-12T18:11:07.656Z,2.53
2022-09-12T18:13:38.830Z,3.22
2022-09-12T18:16:12.254Z,2.53
2022-09-12T18:21:15.426Z,3.10
2022-09-12T18:23:48.579Z,3.15
2022-09-12T18:26:19.040Z,3.50
2022-09-12T18:28:49.546Z,2.90
2022-09-12T18:31:22.049Z,3.00
2022-09-12T18:33:56.510Z,4.38
2022-09-12T18:36:27.187Z,4.30
2022-09-12T18:39:01.369Z,3.42
2022-09-12T18:41:32.658Z,3.35
2022-09-12T18:44:04.978Z,3.85
2022-09-12T18:46:37.292Z,3.50
2022-09-12T18:49:08.052Z,3.47
2022-09-12T18:51:41.950Z,3.65
2022-09-12T18:54:18.105Z,3.15
2022-09-12T18:56:48.347Z,4.25
2022-09-12T18:59:18.627Z,3.78
2022-09-12T19:01:50.690Z,3.67
2022-09-12T19:04:21.190Z,3.30
2022-09-12T19:06:51.806Z,3.38
2022-09-12T19:09:25.221Z,4.60
2022-09-12T19:11:55.411Z,3.53
2022-09-12T19:14:27.674Z,3.40
2022-09-12T19:16:58.119Z,3.53
2022-09-12T19:19:28.565Z,2.90
2022-09-12T19:21:58.922Z,3.28
2022-09-12T19:24:32.272Z,3.00
2022-09-12T19:27:02.512Z,3.13
2022-09-12T19:29:32.814Z,3.13
2022-09-12T19:32:02.890Z,3.17
2022-09-12T19:34:33.222Z,3.03
2022-09-12T19:37:03.378Z,2.67
2022-09-12T19:39:39.579Z,3.15
2022-09-12T19:42:09.994Z,2.72
2022-09-12T19:44:40.131Z,3.10
2022-09-12T19:47:11.377Z,3.13
2022-09-12T19:49:41.761Z,3.15
2022-09-12T19:52:16.843Z,2.85
2022-09-12T19:54:50.345Z,2.60
2022-09-12T19:57:20.960Z,3.03
2022-09-12T19:59:51.306Z,2.92
2022-09-12T20:02:21.580Z,3.45
2022-09-12T20:04:51.869Z,3.28
2022-09-12T20:07:22.198Z,2.92
2022-09-12T20:09:55.414Z,2.85
2022-09-12T20:12:25.514Z,3.53
2022-09-12T20:14:55.824Z,3.70
2022-09-12T20:17:26.048Z,2.67
2022-09-12T20:19:56.295Z,2.70
2022-09-12T20:22:26.788Z,2.97
2022-09-12T20:24:59.926Z,3.40
2022-09-12T20:27:30.441Z,2.70
2022-09-12T20:30:00.599Z,3.42
2022-09-12T20:32:31.003Z,3.90
2022-09-12T20:35:01.317Z,3.53
2022-09-12T20:37:33.130Z,3.72
2022-09-12T20:40:06.532Z,4.10
2022-09-12T20:42:36.779Z,3.92
2022-09-12T20:45:08.454Z,3.45
2022-09-12T20:47:39.028Z,3.20
2022-09-12T20:50:10.016Z,3.97
2022-09-12T20:52:40.042Z,3.78
2022-09-12T20:55:13.985Z,3.78
2022-09-12T20:57:44.088Z,3.20
2022-09-12T21:00:15.514Z,3.38
2022-09-12T21:02:45.729Z,3.05
2022-09-12T21:05:16.216Z,3.53
2022-09-12T21:07:46.417Z,3.40
2022-09-12T21:10:19.661Z,2.60
2022-09-12T21:12:49.903Z,3.17
2022-09-12T21:15:20.477Z,3.25
2022-09-12T21:17:50.592Z,3.30
2022-09-12T21:20:20.839Z,2.92
2022-09-12T21:22:51.186Z,3.20
2022-09-12T21:25:24.192Z,3.67
2022-09-12T21:27:54.272Z,3.10
2022-09-12T21:30:24.567Z,2.85
2022-09-12T21:32:54.856Z,3.60
2022-09-12T21:35:25.080Z,3.03
2022-09-12T21:37:55.799Z,2.90
2022-09-12T21:40:29.133Z,3.45
2022-09-12T21:42:59.323Z,2.75
2022-09-12T21:45:29.981Z,2.67
2022-09-12T21:48:00.726Z,3.10
2022-09-12T21:50:31.045Z,2.80
2022-09-12T21:53:01.267Z,2.83
2022-09-12T21:55:34.506Z,2.58
2022-09-12T21:58:05.208Z,2.22
2022-09-12T22:00:35.820Z,2.38
2022-09-12T22:03:06.591Z,2.65
2022-09-12T22:05:37.744Z,2.63
2022-09-12T22:08:08.013Z,2.33
2022-09-12T22:10:41.655Z,2.60
2022-09-12T22:15:41.868Z,2.30
2022-09-12T22:18:12.329Z,2.10
2022-09-12T22:20:42.776Z,2.38
2022-09-12T22:23:27.489Z,2.80
2022-09-12T22:26:01.439Z,2.78
2022-09-12T22:28:32.895Z,2.53
2022-09-12T22:31:03.922Z,2.45
2022-09-12T22:33:34.276Z,2.35
2022-09-12T22:36:04.643Z,2.58
2022-09-12T22:38:35.057Z,2.50
2022-09-12T22:41:15.299Z,2.20
2022-09-12T22:43:45.447Z,2.60
2022-09-12T22:46:15.954Z,2.33
2022-09-12T22:48:48.761Z,2.20
2022-09-12T22:51:19.335Z,2.60
2022-09-12T22:53:49.445Z,2.65
2022-09-12T22:56:22.721Z,2.38
2022-09-12T22:58:53.004Z,2.53
2022-09-12T23:01:24.125Z,2.33
2022-09-12T23:03:54.215Z,2.10
2022-09-12T23:06:24.452Z,3.15
2022-09-12T23:08:56.268Z,2.30
2022-09-12T23:11:29.114Z,2.67
2022-09-12T23:13:59.583Z,2.80
2022-09-12T23:16:32.243Z,2.53
2022-09-12T23:19:02.815Z,2.10
2022-09-12T23:21:33.132Z,2.70
2022-09-12T23:24:03.446Z,2.65
2022-09-12T23:26:36.400Z,2.60
2022-09-12T23:29:07.665Z,2.40
2022-09-12T23:31:38.715Z,2.75
2022-09-12T23:34:09.396Z,2.60
2022-09-12T23:36:39.620Z,3.13
2022-09-12T23:39:09.840Z,2.70
2022-09-12T23:41:43.329Z,2.50
2022-09-12T23:44:13.575Z,2.80
2022-09-12T23:46:43.873Z,2.75
2022-09-12T23:49:14.097Z,2.53
2022-09-12T23:51:44.920Z,2.80
2022-09-12T23:54:15.003Z,2.65
2022-09-12T23:56:48.246Z,2.75
2022-09-12T23:59:18.475Z,3.10
